Time;durP1;ratioP1;P1;durP2;ratioP2;P2;SDS_P1;SDS_P2;PMS_P1;PMS_P2;Temp;Humidity;BMP_temperature;BMP_pressure;BME280_temperature;BME280_humidity;BME280_pressure;Samples;Min_cycle;Max_cycle;Signal;HPM_P1;HPM_P2
2023/12/01 00:02:01;;;;;;;22.05;6.45;;;15.10;96.70;;;;;;4882277;29;20067;-60
2023/12/01 00:04:31;;;;;;;16.95;6.38;;;15.10;96.70;;;;;;4882469;29;20048;-60
2023/12/01 00:06:59;;;;;;;17.23;5.90;;;15.10;96.70;;;;;;4866992;29;20565;-60
2023/12/01 00:09:30;;;;;;;15.07;5.43;;;15.10;96.70;;;;;;4890950;29;20051;-60
2023/12/01 00:11:59;;;;;;;16.90;6.50;;;15.10;96.70;;;;;;4878603;29;20586;-60
2023/12/01 00:14:27;;;;;;;16.70;7.80;;;15.10;96.70;;;;;;4881366;29;20057;-60
2023/12/01 00:16:56;;;;;;;12.82;5.13;;;15.00;96.70;;;;;;4877953;29;20527;-60
2023/12/01 00:19:25;;;;;;;18.30;5.70;;;15.00;96.70;;;;;;4870633;29;20550;-60
2023/12/01 00:21:54;;;;;;;19.23;5.88;;;14.90;96.70;;;;;;4875909;29;20100;-60
2023/12/01 00:24:23;;;;;;;17.50;6.25;;;14.90;96.70;;;;;;4883077;29;20611;-60
2023/12/01 00:26:53;;;;;;;12.13;4.03;;;15.00;96.70;;;;;;4863801;29;20056;-60
2023/12/01 00:29:21;;;;;;;15.52;5.15;;;15.10;96.70;;;;;;4878652;29;20044;-60
2023/12/01 00:31:50;;;;;;;15.55;4.40;;;15.20;96.70;;;;;;4878409;29;20120;-60
2023/12/01 00:34:19;;;;;;;13.75;4.47;;;15.20;96.70;;;;;;4877206;29;20137;-60
2023/12/01 00:36:48;;;;;;;16.60;4.82;;;15.30;96.70;;;;;;4866975;29;20044;-60
2023/12/01 00:39:17;;;;;;;11.77;4.13;;;15.20;96.70;;;;;;4880040;29;20053;-60
2023/12/01 00:41:45;;;;;;;15.70;4.50;;;15.20;96.70;;;;;;4887347;29;20055;-60
2023/12/01 00:44:16;;;;;;;10.98;4.00;;;15.20;96.70;;;;;;4878431;29;20445;-60
2023/12/01 00:46:47;;;;;;;13.55;4.03;;;15.20;96.70;;;;;;4879313;29;20058;-60
2023/12/01 00:49:16;;;;;;;13.35;4.13;;;15.20;96.70;;;;;;4889907;29;20056;-60
2023/12/01 00:51:45;;;;;;;13.68;3.90;;;15.20;96.70;;;;;;4876892;29;20056;-59
2023/12/01 00:54:14;;;;;;;12.38;4.45;;;15.20;96.70;;;;;;4893804;29;20051;-60
2023/12/01 00:56:43;;;;;;;13.95;4.47;;;15.20;96.70;;;;;;4880327;29;20044;-60
2023/12/01 00:59:16;;;;;;;12.10;3.75;;;15.20;96.70;;;;;;4869610;29;20407;-60
2023/12/01 01:01:45;;;;;;;12.57;3.67;;;15.30;96.70;;;;;;4880835;29;20072;-60
2023/12/01 01:04:14;;;;;;;15.73;3.92;;;15.40;96.70;;;;;;4875015;29;20055;-60
2023/12/01 01:06:43;;;;;;;13.57;4.13;;;15.50;96.70;;;;;;4892433;29;20060;-60
2023/12/01 01:09:14;;;;;;;12.57;3.10;;;15.60;96.70;;;;;;4849937;29;20331;-60
2023/12/01 01:11:43;;;;;;;15.82;3.15;;;15.70;96.70;;;;;;4879324;29;20060;-60
2023/12/01 01:14:12;;;;;;;15.80;3.45;;;15.70;96.70;;;;;;4874723;29;20044;-60
2023/12/01 01:16:43;;;;;;;11.65;3.35;;;15.80;96.70;;;;;;4894924;29;20059;-60
2023/12/01 01:19:25;;;;;;;;;;;;;;;;;;;;;
2023/12/01 01:22:20;;;;;;;;;;;15.80;96.70;;;;;;4895824;29;20085;-60
2023/12/01 01:24:49;;;;;;;12.15;4.32;;;15.80;96.70;;;;;;4872962;29;20282;-60
2023/12/01 01:27:17;;;;;;;14.18;4.28;;;15.80;96.70;;;;;;4873711;29;20525;-59
2023/12/01 01:29:46;;;;;;;14.30;3.80;;;15.80;96.70;;;;;;4870848;29;20104;-60
2023/12/01 01:32:16;;;;;;;12.48;3.97;;;15.90;96.70;;;;;;4876652;29;20090;-60
2023/12/01 01:34:45;;;;;;;13.90;4.28;;;15.70;96.70;;;;;;4884266;29;20536;-62
2023/12/01 01:37:15;;;;;;;10.40;3.80;;;15.70;96.70;;;;;;4886066;29;20119;-59
2023/12/01 01:39:43;;;;;;;12.38;3.38;;;15.60;96.70;;;;;;4907166;29;20167;-60
2023/12/01 01:42:12;;;;;;;11.10;3.58;;;15.60;96.70;;;;;;4883794;29;20044;-60
2023/12/01 01:44:41;;;;;;;12.82;3.50;;;15.50;96.70;;;;;;4881269;29;20056;-60
2023/12/01 01:47:09;;;;;;;12.20;3.85;;;15.50;96.70;;;;;;4880736;29;20580;-60
2023/12/01 01:49:41;;;;;;;9.68;4.03;;;15.40;96.70;;;;;;4874707;29;20590;-60
2023/12/01 01:52:11;;;;;;;13.07;4.38;;;15.40;96.70;;;;;;4879433;29;20107;-60
2023/12/01 01:54:41;;;;;;;13.80;4.20;;;15.30;96.70;;;;;;4843094;29;20056;-60
2023/12/01 01:57:10;;;;;;;12.70;4.38;;;15.30;96.70;;;;;;4862854;29;20535;-60
2023/12/01 01:59:39;;;;;;;14.98;4.13;;;15.30;96.70;;;;;;4858487;29;20044;-60
2023/12/01 02:02:08;;;;;;;11.77;3.88;;;15.30;96.70;;;;;;4842910;29;20053;-60
2023/12/01 02:04:40;;;;;;;10.43;3.30;;;15.20;96.70;;;;;;4841769;29;20057;-60
2023/12/01 02:07:25;;;;;;;14.10;3.70;;;15.20;96.70;;;;;;4859557;29;20064;-60
2023/12/01 02:09:54;;;;;;;14.02;4.07;;;15.30;96.70;;;;;;4862715;29;20053;-60
2023/12/01 02:12:23;;;;;;;13.13;4.43;;;15.20;96.70;;;;;;4876609;29;20519;-60
2023/12/01 02:14:52;;;;;;;12.23;3.63;;;15.30;96.70;;;;;;4857364;29;20140;-60
2023/12/01 02:17:22;;;;;;;13.05;3.75;;;15.20;96.70;;;;;;4860651;29;20097;-60
2023/12/01 02:19:54;;;;;;;9.48;3.58;;;15.20;96.70;;;;;;4857136;29;20423;-60
2023/12/01 02:22:25;;;;;;;10.85;3.78;;;15.20;96.70;;;;;;4850972;29;20052;-60
2023/12/01 02:24:53;;;;;;;12.38;3.60;;;15.20;96.70;;;;;;4858067;29;20084;-60
2023/12/01 02:27:22;;;;;;;10.65;4.05;;;15.20;96.70;;;;;;4877124;29;20128;-60
2023/12/01 02:29:50;;;;;;;12.77;3.88;;;15.10;96.70;;;;;;4872330;29;20048;-60
2023/12/01 02:32:19;;;;;;;8.57;3.25;;;15.20;96.70;;;;;;4877743;29;20119;-60
2023/12/01 02:34:48;;;;;;;12.65;3.53;;;15.30;96.70;;;;;;4856809;29;20719;-60
2023/12/01 02:37:16;;;;;;;11.45;3.65;;;15.20;96.70;;;;;;4857177;29;20052;-60
2023/12/01 02:39:47;;;;;;;13.20;2.70;;;15.30;96.70;;;;;;4857564;29;20049;-60
2023/12/01 02:42:16;;;;;;;13.82;3.30;;;15.60;96.70;;;;;;4846330;29;20053;-60
2023/12/01 02:45:09;;;;;;;12.23;3.50;;;15.70;96.70;;;;;;5446531;24;21172;31
2023/12/01 02:47:39;;;;;;;20.73;3.88;;;15.60;96.70;;;;;;4833387;29;20053;-59
2023/12/01 02:50:09;;;;;;;13.77;2.97;;;15.60;96.70;;;;;;4840704;29;20057;-59
2023/12/01 02:52:39;;;;;;;11.82;2.97;;;15.90;96.70;;;;;;4830701;29;20061;-59
2023/12/01 02:55:10;;;;;;;12.18;2.40;;;16.00;96.70;;;;;;4836347;29;20105;-59
2023/12/01 02:57:42;;;;;;;13.95;3.88;;;16.10;96.70;;;;;;4836002;29;20547;-59
2023/12/01 03:00:14;;;;;;;14.82;3.13;;;16.20;96.70;;;;;;4831719;29;20069;-59
2023/12/01 03:02:43;;;;;;;11.13;2.80;;;16.40;96.70;;;;;;4840187;29;20057;-60
2023/12/01 03:05:12;;;;;;;8.60;2.90;;;16.40;96.70;;;;;;4835620;29;20049;-59
2023/12/01 03:07:41;;;;;;;12.60;3.03;;;16.50;96.70;;;;;;4839916;29;20049;-59
2023/12/01 03:10:12;;;;;;;10.07;2.40;;;16.50;96.70;;;;;;4822699;29;20074;-59
2023/12/01 03:12:43;;;;;;;10.40;2.72;;;16.60;96.70;;;;;;4836036;29;20504;-59
2023/12/01 03:15:13;;;;;;;9.10;3.20;;;16.60;96.70;;;;;;4855678;29;20056;-59
2023/12/01 03:17:45;;;;;;;9.48;2.92;;;16.60;96.70;;;;;;4866848;29;20048;-59
2023/12/01 03:20:17;;;;;;;12.40;2.45;;;16.60;96.70;;;;;;4862183;29;20511;-60
2023/12/01 03:22:47;;;;;;;9.65;3.03;;;16.70;96.70;;;;;;4857256;29;20050;-59
2023/12/01 03:25:17;;;;;;;10.40;2.75;;;16.70;96.70;;;;;;4842357;29;20044;-60
2023/12/01 03:27:47;;;;;;;12.80;2.40;;;16.80;96.70;;;;;;4865225;29;20144;-60
2023/12/01 03:30:16;;;;;;;11.93;2.75;;;16.80;96.70;;;;;;4883312;29;20044;-60
2023/12/01 03:32:46;;;;;;;8.65;2.50;;;16.70;96.70;;;;;;4875023;29;20076;-59
2023/12/01 03:35:16;;;;;;;8.57;2.70;;;16.70;96.70;;;;;;4849861;29;20097;-59
2023/12/01 03:37:45;;;;;;;11.73;2.70;;;16.70;96.70;;;;;;4873918;29;20096;-60
2023/12/01 03:40:17;;;;;;;8.13;2.55;;;16.70;96.70;;;;;;4857931;29;20482;-59
2023/12/01 03:42:47;;;;;;;9.18;2.70;;;16.70;96.70;;;;;;4861491;29;20076;-60
2023/12/01 03:45:16;;;;;;;9.35;2.55;;;16.70;96.70;;;;;;4861247;29;20081;-60
2023/12/01 03:47:46;;;;;;;11.45;2.63;;;16.70;96.70;;;;;;4859500;29;20078;-60
2023/12/01 03:50:18;;;;;;;8.02;2.47;;;16.70;96.70;;;;;;4845764;29;20049;-60
2023/12/01 03:52:51;;;;;;;10.07;2.80;;;16.70;96.70;;;;;;4860717;29;20105;-60
2023/12/01 03:55:22;;;;;;;8.98;2.30;;;16.60;96.70;;;;;;4840457;29;20057;-60
2023/12/01 03:57:50;;;;;;;6.60;2.17;;;16.70;96.70;;;;;;4843611;29;20421;-60
2023/12/01 04:01:05;;;;;;;10.10;3.00;;;16.60;96.70;;;;;;4853511;29;20059;-59
2023/12/01 04:03:34;;;;;;;15.45;2.63;;;16.60;96.70;;;;;;4860792;29;20071;-60
2023/12/01 04:06:03;;;;;;;9.98;2.33;;;16.50;96.70;;;;;;4853818;29;20523;-59
2023/12/01 04:08:31;;;;;;;8.75;2.50;;;16.50;96.70;;;;;;4842916;29;20148;-60
2023/12/01 04:11:03;;;;;;;5.90;2.38;;;16.60;96.70;;;;;;4834339;29;20044;-60
2023/12/01 04:13:34;;;;;;;13.57;2.10;;;16.50;96.70;;;;;;4845503;29;20516;-59
2023/12/01 04:16:04;;;;;;;7.70;2.13;;;16.60;96.70;;;;;;4843567;29;20685;-60
2023/12/01 04:18:46;;;;;;;7.82;1.98;;;16.50;96.70;;;;;;4850894;29;20049;-59
2023/12/01 04:21:15;;;;;;;6.72;2.10;;;16.50;96.70;;;;;;4860928;29;20048;-60
2023/12/01 04:23:44;;;;;;;9.30;1.90;;;16.50;96.70;;;;;;4860880;29;20057;-60
2023/12/01 04:26:19;;;;;;;9.70;2.45;;;16.50;96.70;;;;;;4851714;29;20037;-59
2023/12/01 04:28:47;;;;;;;8.73;2.17;;;16.50;96.70;;;;;;4860556;29;20056;-59
2023/12/01 04:31:16;;;;;;;10.23;2.78;;;16.50;96.70;;;;;;4844292;29;20588;-60
2023/12/01 04:33:46;;;;;;;8.57;2.33;;;16.50;96.70;;;;;;4857537;29;20448;-59
2023/12/01 04:36:15;;;;;;;6.03;1.95;;;16.50;96.70;;;;;;4827394;29;20105;-60
2023/12/01 04:38:44;;;;;;;7.63;2.08;;;16.50;96.70;;;;;;4846326;29;20411;-60
2023/12/01 04:41:16;;;;;;;9.52;1.90;;;16.60;96.70;;;;;;4858807;29;20045;-60
2023/12/01 04:43:50;;;;;;;8.27;2.22;;;16.50;96.70;;;;;;4860300;29;20457;-60
2023/12/01 04:46:19;;;;;;;9.93;2.40;;;16.50;96.70;;;;;;4845758;29;20060;-60
2023/12/01 04:48:54;;;;;;;7.35;2.00;;;16.60;96.70;;;;;;4847109;29;20523;-60
2023/12/01 04:51:22;;;;;;;7.53;2.72;;;16.70;96.70;;;;;;4844417;29;20049;-59
2023/12/01 04:53:51;;;;;;;6.07;1.65;;;16.70;96.70;;;;;;4845543;29;20045;-60
2023/12/01 04:56:20;;;;;;;7.65;2.33;;;16.70;96.70;;;;;;4857389;29;20056;-60
2023/12/01 05:02:45;;;;;;;11.23;2.15;;;16.70;96.70;;;;;;4857082;29;20033;-59
2023/12/01 05:05:21;;;;;;;8.85;2.15;;;16.70;96.70;;;;;;4855849;29;20574;-60
2023/12/01 05:07:53;;;;;;;6.25;1.88;;;16.70;96.70;;;;;;4849110;29;20045;-60
2023/12/01 05:10:22;;;;;;;10.23;2.15;;;16.70;96.70;;;;;;4841567;29;20432;-60
2023/12/01 05:12:54;;;;;;;11.25;2.28;;;16.70;96.70;;;;;;4856753;29;20144;-60
2023/12/01 05:15:25;;;;;;;4.90;1.63;;;16.70;96.70;;;;;;4860613;29;20053;-60
2023/12/01 05:17:58;;;;;;;9.63;2.10;;;16.70;96.70;;;;;;4861842;29;20048;-60
2023/12/01 05:20:28;;;;;;;8.48;2.20;;;16.70;96.70;;;;;;4857802;29;20495;-60
2023/12/01 05:22:58;;;;;;;10.25;2.15;;;16.70;96.70;;;;;;4837625;29;20101;-60
2023/12/01 05:25:32;;;;;;;11.45;1.85;;;16.70;96.70;;;;;;4838859;29;20072;-60
2023/12/01 05:28:03;;;;;;;8.77;2.05;;;16.80;96.70;;;;;;4849939;29;20532;-60
2023/12/01 05:30:33;;;;;;;8.25;2.20;;;16.70;96.70;;;;;;4851818;29;20041;-60
2023/12/01 05:33:07;;;;;;;10.48;2.00;;;16.80;96.70;;;;;;4848249;29;20075;-59
2023/12/01 05:35:47;;;;;;;;;;;;;;;;;;;;;
2023/12/01 05:38:46;;;;;;;8.82;1.67;;;16.70;96.70;;;;;;4786239;29;20437;-60
2023/12/01 05:41:17;;;;;;;6.72;1.55;;;16.80;96.70;;;;;;4828640;29;20144;-60
2023/12/01 05:43:47;;;;;;;8.07;2.10;;;16.80;96.70;;;;;;4848062;29;20049;-59
2023/12/01 05:46:15;;;;;;;9.20;2.10;;;16.80;96.70;;;;;;4860372;29;20450;-60
2023/12/01 05:48:46;;;;;;;9.38;2.55;;;16.80;96.70;;;;;;4858823;29;20061;-60
2023/12/01 05:52:05;;;;;;;10.57;1.45;;;16.80;96.70;;;;;;4840524;29;20068;-60
2023/12/01 05:54:34;;;;;;;10.07;2.13;;;16.80;96.70;;;;;;4858911;29;20580;-59
2023/12/01 05:57:06;;;;;;;7.75;1.80;;;16.80;96.70;;;;;;4858303;29;20543;-60
2023/12/01 05:59:34;;;;;;;6.63;2.50;;;16.80;96.70;;;;;;4860267;29;20061;-60
2023/12/01 06:02:10;;;;;;;7.05;1.60;;;16.80;96.70;;;;;;4840766;29;20058;-59
2023/12/01 06:04:42;;;;;;;13.80;2.45;;;16.90;96.70;;;;;;4844709;29;20054;-60
2023/12/01 06:07:11;;;;;;;8.80;2.65;;;16.90;96.70;;;;;;4844799;29;20131;-60
2023/12/01 06:09:43;;;;;;;8.40;2.30;;;16.90;96.70;;;;;;4844780;29;20057;-62
2023/12/01 06:12:12;;;;;;;10.88;2.72;;;16.90;96.70;;;;;;4841032;29;20057;-61
2023/12/01 06:14:41;;;;;;;11.20;2.22;;;16.90;96.70;;;;;;4859589;29;20435;-61
2023/12/01 06:17:15;;;;;;;14.63;2.70;;;17.00;96.70;;;;;;4852410;29;20586;-61
2023/12/01 06:19:46;;;;;;;9.07;2.13;;;17.00;96.70;;;;;;4844828;29;20110;-61
2023/12/01 06:22:15;;;;;;;10.23;2.35;;;17.00;96.70;;;;;;4844272;29;20058;-61
2023/12/01 06:24:48;;;;;;;9.75;2.15;;;17.00;96.70;;;;;;4840973;29;20735;-61
2023/12/01 06:27:16;;;;;;;10.35;1.90;;;17.00;96.70;;;;;;4839108;29;20041;-61
2023/12/01 06:29:45;;;;;;;10.82;2.75;;;16.90;96.70;;;;;;4844939;29;20045;-61
2023/12/01 06:32:13;;;;;;;8.40;2.00;;;16.90;96.70;;;;;;4859032;29;20057;-62
2023/12/01 06:35:01;;;;;;;9.90;3.00;;;17.00;96.70;;;;;;4841762;29;20442;-61
2023/12/01 06:37:30;;;;;;;9.23;2.30;;;17.00;96.70;;;;;;4856272;29;20465;-60
2023/12/01 06:39:59;;;;;;;9.60;2.38;;;16.90;96.70;;;;;;4831124;29;20799;-61
2023/12/01 06:42:28;;;;;;;8.35;2.25;;;16.90;96.70;;;;;;4834687;29;20049;-61
2023/12/01 06:44:59;;;;;;;9.73;2.80;;;16.90;96.70;;;;;;4841163;29;20056;-61
2023/12/01 06:47:28;;;;;;;6.95;2.08;;;16.80;96.70;;;;;;4861310;29;20642;-61
2023/12/01 06:50:09;;;;;;;8.23;2.10;;;16.80;96.70;;;;;;4852826;29;20046;-61
2023/12/01 06:52:42;;;;;;;8.77;2.53;;;16.70;96.70;;;;;;4844439;29;20049;-61
2023/12/01 06:55:12;;;;;;;9.45;2.63;;;16.60;96.70;;;;;;4877674;29;20081;-63
2023/12/01 06:57:54;;;;;;;12.23;2.35;;;16.60;96.70;;;;;;4843632;29;20056;-61
2023/12/01 07:00:29;;;;;;;12.80;2.25;;;16.50;96.70;;;;;;4875703;29;20535;-61
2023/12/01 07:03:04;;;;;;;8.27;2.22;;;16.50;96.70;;;;;;4838526;29;20516;-61
2023/12/01 07:05:57;;;;;;;;;;;;;;;;;;;;;
2023/12/01 07:08:32;;;;;;;6.60;2.15;;;16.50;96.70;;;;;;4807175;29;20088;-61
2023/12/01 07:11:03;;;;;;;13.35;2.85;;;16.50;96.70;;;;;;4830256;29;20038;-61
2023/12/01 07:13:32;;;;;;;10.43;2.58;;;16.50;96.70;;;;;;4839236;29;20129;-61
2023/12/01 07:16:09;;;;;;;10.50;2.47;;;16.50;96.70;;;;;;4845000;29;20504;-61
2023/12/01 07:18:40;;;;;;;9.93;2.63;;;16.40;96.70;;;;;;4845666;29;20137;-61
2023/12/01 07:21:10;;;;;;;9.50;2.80;;;16.40;96.70;;;;;;4843796;29;20072;-61
2023/12/01 07:24:02;;;;;;;9.00;2.92;;;16.50;96.70;;;;;;4853587;29;20069;-62
2023/12/01 07:26:33;;;;;;;10.85;2.70;;;16.50;96.70;;;;;;4843818;29;20068;-61
2023/12/01 07:29:04;;;;;;;12.05;3.22;;;16.50;96.70;;;;;;4841169;29;20083;-61
2023/12/01 07:31:33;;;;;;;12.43;3.60;;;16.60;96.70;;;;;;4855490;29;20054;-61
2023/12/01 07:34:02;;;;;;;10.77;4.22;;;16.60;96.70;;;;;;4825235;29;20474;-61
2023/12/01 07:36:34;;;;;;;13.32;3.13;;;16.70;96.70;;;;;;4840555;29;20056;-61
2023/12/01 07:39:07;;;;;;;9.27;2.83;;;16.80;96.70;;;;;;4824398;29;20073;-61
2023/12/01 07:41:38;;;;;;;12.25;2.90;;;16.80;96.70;;;;;;4855626;29;20642;-61
2023/12/01 07:44:06;;;;;;;10.07;3.10;;;17.00;96.70;;;;;;4842357;29;20105;-61
2023/12/01 07:46:34;;;;;;;14.35;3.05;;;17.10;96.70;;;;;;4830525;29;20140;-61
2023/12/01 07:49:03;;;;;;;11.77;3.40;;;17.10;96.70;;;;;;4839636;29;20054;-61
2023/12/01 07:51:38;;;;;;;11.25;3.08;;;17.10;96.70;;;;;;4842021;29;20077;-61
2023/12/01 07:54:06;;;;;;;11.95;4.50;;;17.10;96.70;;;;;;4868653;29;20049;-61
2023/12/01 07:56:35;;;;;;;15.00;3.78;;;17.20;96.70;;;;;;4827221;29;20046;-61
2023/12/01 07:59:05;;;;;;;16.63;4.32;;;17.20;96.70;;;;;;4841626;29;20398;-61
2023/12/01 08:01:35;;;;;;;14.80;5.65;;;17.10;96.70;;;;;;4846105;29;20057;-61
2023/12/01 08:04:04;;;;;;;12.70;4.25;;;17.00;96.70;;;;;;4857693;29;20049;-64
2023/12/01 08:06:35;;;;;;;15.25;4.65;;;17.00;96.70;;;;;;4828253;29;20068;-63
2023/12/01 08:09:05;;;;;;;16.58;5.70;;;17.00;96.70;;;;;;4854684;29;20053;-64
2023/12/01 08:11:33;;;;;;;8.88;3.00;;;17.00;96.70;;;;;;4842790;29;20051;-64
2023/12/01 08:14:04;;;;;;;12.32;2.92;;;17.00;96.70;;;;;;4841255;29;20057;-64
2023/12/01 08:16:32;;;;;;;10.10;2.58;;;17.00;96.70;;;;;;4849442;29;20827;-64
2023/12/01 08:19:01;;;;;;;7.97;2.83;;;17.00;96.70;;;;;;4843030;29;20455;-64
2023/12/01 08:21:31;;;;;;;13.90;3.30;;;17.00;96.70;;;;;;4840290;29;20077;-62
2023/12/01 08:23:59;;;;;;;11.20;2.92;;;17.10;96.70;;;;;;4839614;29;20057;-61
2023/12/01 08:26:29;;;;;;;9.75;3.22;;;17.10;96.70;;;;;;4834508;29;20136;-61
2023/12/01 08:29:00;;;;;;;12.82;3.20;;;17.20;96.70;;;;;;4843685;29;20064;-61
2023/12/01 08:31:28;;;;;;;11.43;3.05;;;17.30;96.70;;;;;;4841346;29;20076;-61
2023/12/01 08:33:58;;;;;;;10.00;3.38;;;17.40;96.70;;;;;;4849391;29;20065;-61
2023/12/01 08:36:27;;;;;;;11.68;2.42;;;17.40;96.70;;;;;;4835925;29;20053;-61
2023/12/01 08:38:59;;;;;;;11.60;4.15;;;17.50;96.70;;;;;;4857824;29;20054;-61
2023/12/01 08:41:30;;;;;;;16.52;4.30;;;17.50;96.70;;;;;;4857692;29;20504;-62
2023/12/01 08:44:20;;;;;;;;;;;;;;;;;;;;;
2023/12/01 08:47:15;;;;;;;10.35;2.63;;;17.60;96.70;;;;;;4831628;29;20534;-62
2023/12/01 08:49:44;;;;;;;10.98;4.57;;;17.60;96.70;;;;;;4873202;29;20149;-64
2023/12/01 08:52:12;;;;;;;18.30;8.55;;;17.70;96.70;;;;;;4887353;29;20091;-64
2023/12/01 08:54:41;;;;;;;14.30;5.25;;;17.80;96.70;;;;;;4831631;29;20064;-64
2023/12/01 08:57:15;;;;;;;12.23;4.63;;;17.80;96.70;;;;;;4839592;29;20038;-63
2023/12/01 08:59:44;;;;;;;10.75;3.85;;;17.90;96.70;;;;;;4835201;29;20144;-63
2023/12/01 09:02:14;;;;;;;14.50;4.20;;;18.00;96.70;;;;;;4839780;29;20044;-63
2023/12/01 09:04:43;;;;;;;14.85;4.68;;;17.90;96.70;;;;;;4856338;29;20084;-63
2023/12/01 09:07:11;;;;;;;13.82;4.13;;;17.90;96.70;;;;;;4862405;29;20049;-63
2023/12/01 09:09:40;;;;;;;10.43;3.47;;;17.90;96.70;;;;;;4824384;29;20133;-63
2023/12/01 09:12:09;;;;;;;10.93;3.70;;;17.90;96.70;;;;;;4824444;29;20046;-63
2023/12/01 09:14:41;;;;;;;17.48;6.38;;;17.90;96.70;;;;;;4834346;29;20084;-63
2023/12/01 09:17:09;;;;;;;14.40;3.72;;;17.90;96.70;;;;;;4856369;29;20049;-63
2023/12/01 09:19:38;;;;;;;14.18;5.28;;;17.80;96.70;;;;;;4842508;29;20520;-64
2023/12/01 09:22:07;;;;;;;16.40;5.28;;;17.80;96.70;;;;;;4854238;29;20473;-63
2023/12/01 09:24:35;;;;;;;12.00;4.07;;;17.80;96.70;;;;;;4841617;29;20504;-62
2023/12/01 09:27:04;;;;;;;10.70;2.65;;;17.90;96.70;;;;;;4821334;29;20113;-62
2023/12/01 09:29:34;;;;;;;9.73;2.25;;;17.90;96.70;;;;;;4841525;29;20105;-62
2023/12/01 09:32:05;;;;;;;11.50;2.53;;;18.00;96.70;;;;;;4839845;29;20095;-63
2023/12/01 09:34:35;;;;;;;14.95;3.17;;;18.10;96.70;;;;;;4829067;29;20536;-63
2023/12/01 09:37:03;;;;;;;11.48;2.95;;;18.20;96.70;;;;;;4839003;29;20049;-63
2023/12/01 09:39:32;;;;;;;13.32;2.70;;;18.30;96.70;;;;;;4853830;29;20474;-63
2023/12/01 09:42:05;;;;;;;9.07;2.13;;;18.30;96.70;;;;;;4838430;29;20041;-63
2023/12/01 09:44:35;;;;;;;11.73;2.75;;;18.30;96.70;;;;;;4856831;29;20117;-63
2023/12/01 09:47:10;;;;;;;7.28;2.25;;;18.30;96.70;;;;;;4856385;29;20064;-63
2023/12/01 09:49:39;;;;;;;13.70;3.08;;;18.40;96.70;;;;;;4856604;29;20050;-69
2023/12/01 09:52:10;;;;;;;11.98;2.50;;;18.40;96.70;;;;;;4840754;29;20047;-63
2023/12/01 09:54:39;;;;;;;13.02;2.72;;;18.40;96.70;;;;;;4840689;29;20054;-66
2023/12/01 09:57:08;;;;;;;10.38;2.25;;;18.40;96.70;;;;;;4839151;29;20081;-63
2023/12/01 09:59:38;;;;;;;10.73;3.38;;;18.60;96.70;;;;;;4856247;29;20148;-63
2023/12/01 10:02:09;;;;;;;13.80;3.00;;;18.60;96.70;;;;;;4848773;29;20141;-64
2023/12/01 10:04:39;;;;;;;9.10;2.17;;;18.60;96.70;;;;;;4865987;29;20073;-63
2023/12/01 10:07:07;;;;;;;14.23;3.63;;;18.70;96.70;;;;;;4863579;29;20063;-64
2023/12/01 10:09:38;;;;;;;13.85;4.50;;;18.80;96.70;;;;;;4841498;29;20406;-64
2023/12/01 10:12:10;;;;;;;12.05;4.55;;;18.90;96.70;;;;;;4859891;29;20092;-63
2023/12/01 10:14:42;;;;;;;13.85;4.30;;;19.00;96.70;;;;;;4872437;29;20049;-63
2023/12/01 10:17:12;;;;;;;14.30;3.65;;;19.10;96.70;;;;;;4847252;29;20049;-64
2023/12/01 10:19:45;;;;;;;11.77;3.17;;;19.20;96.70;;;;;;4856055;29;20072;-63
2023/12/01 10:22:17;;;;;;;11.88;2.83;;;19.30;96.70;;;;;;4835655;29;20080;-63
2023/12/01 10:24:53;;;;;;;12.10;3.30;;;19.30;96.70;;;;;;4858121;29;20060;-63
2023/12/01 10:27:22;;;;;;;;;;;19.40;96.70;;;;;;4844675;29;20057;-64
2023/12/01 10:29:51;;;;;;;12.88;2.80;;;19.40;96.70;;;;;;4844113;29;19962;-63
2023/12/01 10:32:25;;;;;;;12.75;3.08;;;19.50;96.70;;;;;;4858054;29;20504;-64
2023/12/01 10:34:57;;;;;;;7.35;2.17;;;19.60;96.70;;;;;;4821186;29;20057;-63
2023/12/01 10:37:26;;;;;;;12.07;2.92;;;19.70;96.70;;;;;;4856001;29;20056;-63
2023/12/01 10:39:56;;;;;;;9.85;2.35;;;19.80;96.70;;;;;;4859067;29;20053;-63
2023/12/01 10:42:29;;;;;;;13.15;2.78;;;19.80;96.70;;;;;;4860796;29;20040;-63
2023/12/01 10:45:00;;;;;;;9.50;2.50;;;20.00;96.70;;;;;;4848145;29;20064;-63
2023/12/01 10:47:32;;;;;;;11.23;2.45;;;20.00;96.70;;;;;;4873411;29;20516;-63
2023/12/01 10:50:02;;;;;;;12.18;2.40;;;20.20;96.70;;;;;;4866892;29;20144;-63
2023/12/01 10:52:32;;;;;;;11.38;2.47;;;20.20;96.70;;;;;;4842606;29;20045;-64
2023/12/01 10:55:01;;;;;;;11.77;2.67;;;20.20;96.70;;;;;;4859581;29;20053;-64
2023/12/01 10:57:35;;;;;;;8.95;2.40;;;20.10;96.70;;;;;;4844550;29;20054;-65
2023/12/01 11:00:19;;;;;;;11.50;2.70;;;20.30;96.70;;;;;;4837668;29;20053;-64
2023/12/01 11:02:52;;;;;;;12.27;3.60;;;20.30;96.70;;;;;;4855079;29;20050;-64
2023/12/01 11:05:21;;;;;;;8.63;2.80;;;20.40;96.70;;;;;;4827740;29;20053;-64
2023/12/01 11:08:01;;;;;;;8.13;2.35;;;20.40;96.70;;;;;;4825724;29;20077;-64
2023/12/01 11:10:37;;;;;;;10.73;3.30;;;20.50;96.70;;;;;;4835655;29;20568;-64
2023/12/01 11:13:18;;;;;;;10.82;3.08;;;20.70;96.70;;;;;;4840258;29;20053;-64
2023/12/01 11:15:51;;;;;;;13.30;3.05;;;20.80;96.70;;;;;;4841859;29;20061;-64
2023/12/01 11:18:23;;;;;;;10.80;2.92;;;20.90;96.70;;;;;;4843334;29;20148;-64
2023/12/01 11:20:52;;;;;;;7.28;2.53;;;21.00;96.70;;;;;;4833260;29;20228;-65
2023/12/01 11:23:25;;;;;;;10.20;3.60;;;21.10;96.70;;;;;;4825413;29;20049;-64
2023/12/01 11:25:55;;;;;;;8.27;2.50;;;21.20;96.70;;;;;;4862194;29;20061;-64
2023/12/01 11:28:56;;;;;;;9.35;3.55;;;21.20;96.70;;;;;;4843621;29;20053;-64
2023/12/01 11:33:57;;;;;;;11.70;2.97;;;21.40;96.70;;;;;;4858262;29;20056;-64
2023/12/01 11:36:29;;;;;;;11.88;3.63;;;21.30;96.70;;;;;;4836179;29;20054;-64
2023/12/01 11:41:44;;;;;;;14.52;3.60;;;20.90;96.70;;;;;;4858910;29;20066;-63
2023/12/01 11:44:16;;;;;;;17.17;4.15;;;20.80;96.70;;;;;;4840412;29;20060;-64
2023/12/01 11:46:45;;;;;;;11.95;2.42;;;20.70;96.70;;;;;;4838940;29;20053;-63
2023/12/01 11:49:15;;;;;;;8.95;3.20;;;20.60;96.70;;;;;;4828593;29;20053;-64
2023/12/01 11:51:45;;;;;;;10.98;3.42;;;20.50;96.70;;;;;;4855877;29;20107;-63
2023/12/01 11:54:14;;;;;;;8.23;2.72;;;20.50;96.70;;;;;;4840012;29;20056;-63
2023/12/01 11:56:47;;;;;;;11.05;3.92;;;20.70;96.70;;;;;;4829964;29;20057;-64
2023/12/01 11:59:15;;;;;;;9.48;3.15;;;20.80;96.70;;;;;;4842999;29;20050;-65
2023/12/01 12:01:44;;;;;;;12.60;3.88;;;20.70;96.70;;;;;;4861781;29;20045;-64
2023/12/01 12:04:18;;;;;;;10.43;3.22;;;20.60;96.70;;;;;;4861486;29;20495;-63
2023/12/01 12:06:48;;;;;;;11.55;3.22;;;20.60;96.70;;;;;;4844594;29;20508;-63
2023/12/01 12:09:17;;;;;;;15.57;4.68;;;20.60;96.70;;;;;;4833626;29;20042;-63
2023/12/01 12:11:53;;;;;;;12.93;4.05;;;20.50;96.70;;;;;;4851406;29;20090;-64
2023/12/01 12:14:22;;;;;;;13.40;2.97;;;20.40;96.70;;;;;;4854410;29;20429;-63
2023/12/01 12:16:51;;;;;;;11.57;2.40;;;20.40;96.70;;;;;;4862691;29;20049;-63
2023/12/01 12:19:22;;;;;;;12.95;2.80;;;20.30;96.70;;;;;;4867087;29;20046;-63
2023/12/01 12:21:51;;;;;;;11.20;2.72;;;20.40;96.70;;;;;;4857166;29;20148;-63
2023/12/01 12:24:20;;;;;;;12.07;2.65;;;20.70;96.70;;;;;;4837909;29;20679;-64
2023/12/01 12:26:56;;;;;;;10.85;2.35;;;20.60;96.70;;;;;;4833600;29;20424;-63
2023/12/01 12:29:25;;;;;;;11.45;2.63;;;20.50;96.70;;;;;;4854433;29;20050;-63
2023/12/01 12:31:54;;;;;;;9.55;2.60;;;20.60;96.70;;;;;;4842454;29;20144;-64
2023/12/01 12:34:24;;;;;;;9.02;2.80;;;20.70;96.70;;;;;;4845683;29;20049;-63
2023/12/01 12:36:56;;;;;;;12.77;3.22;;;20.70;96.70;;;;;;4871303;29;20049;-62
2023/12/01 12:39:27;;;;;;;12.32;3.53;;;20.70;96.70;;;;;;4839416;29;20053;-63
2023/12/01 12:41:59;;;;;;;11.70;3.45;;;20.70;96.70;;;;;;4851298;29;20092;-63
2023/12/01 12:44:31;;;;;;;10.57;3.15;;;20.70;96.70;;;;;;4831047;29;20045;-63
2023/12/01 12:47:06;;;;;;;14.85;2.80;;;20.60;96.70;;;;;;4852464;29;20054;-63
2023/12/01 12:49:36;;;;;;;11.07;2.53;;;20.50;96.70;;;;;;4801409;29;20050;-61
2023/12/01 12:52:05;;;;;;;9.55;2.83;;;20.50;96.70;;;;;;4819768;29;20578;-63
2023/12/01 12:54:34;;;;;;;11.75;2.88;;;20.70;96.70;;;;;;4819921;29;20502;-64
2023/12/01 12:57:05;;;;;;;11.30;2.83;;;20.80;96.70;;;;;;4825660;29;20452;-63
2023/12/01 12:59:33;;;;;;;8.50;2.75;;;20.90;96.70;;;;;;4833538;29;20061;-62
2023/12/01 13:02:02;;;;;;;10.60;3.33;;;20.80;96.70;;;;;;4827280;29;20050;-62
2023/12/01 13:04:30;;;;;;;13.73;3.22;;;20.60;96.70;;;;;;4825729;29;20046;-62
2023/12/01 13:07:03;;;;;;;12.20;4.78;;;20.50;96.70;;;;;;4836955;29;20067;-62
2023/12/01 13:09:33;;;;;;;16.52;4.18;;;20.30;96.70;;;;;;4839079;29;20089;-62
2023/12/01 13:12:02;;;;;;;14.60;4.38;;;20.20;96.70;;;;;;4834990;29;20050;-62
2023/12/01 13:14:30;;;;;;;13.82;4.45;;;20.20;96.70;;;;;;4821318;29;20137;-61
2023/12/01 13:16:58;;;;;;;11.10;3.72;;;20.20;96.70;;;;;;4820999;29;20060;-62